Latest Weather Observations for Kingscote

IDS60801

Issued at 8:31 am CST Thursday 2 July 2015 (issued every 30 minutes, with the page automatically refreshed every 10 minutes)

About weather observations | Map of weather stations | Latest weather observations for SA | Other Formats
Station Details ID: 022841 Name: KINGSCOTE AERO Lat: -35.71 Lon: 137.52 Height: 6.23 m
Data from the previous 72 hours. | See also: Recent months at Kingscote
Date/Time
CST
Temp
°C
App
Temp
°C
Dew
Point
Rel
Hum
%
Delta-T
°C
Wind Press
QNH
hPa
Press
MSL
hPa
Rain
since 9 am
mm
Dir
 
Spd
km/h
Gust
km/h
Spd
kts
Gust
kts
02/08:30am 11.4 9.2 9.3 87 1.0 SSW 11 15 6 8 1028.8 1028.8 0.0
02/08:00am 10.4 7.3 8.8 90 0.8 SSW 15 17 8 9 1028.4 1028.4 0.0
02/07:30am 10.8 7.5 9.4 91 0.7 S 17 22 9 12 1027.9 1027.9 0.0
02/07:00am 9.9 8.1 9.4 97 0.2 SSW 9 11 5 6 1027.7 1027.7 0.0
02/06:30am 9.6 8.0 8.8 95 0.4 WSW 7 9 4 5 1027.1 1027.1 0.0
02/06:00am 10.7 9.4 10.1 96 0.3 WNW 7 9 4 5 1026.8 1026.8 0.0
02/05:30am 10.8 9.2 10.2 96 0.3 W 9 11 5 6 1026.7 1026.7 0.0
02/05:00am 10.6 8.2 10.1 97 0.3 WSW 13 17 7 9 1026.7 1026.7 0.0
02/04:30am 9.3 7.7 8.8 97 0.2 W 7 11 4 6 1026.5 1026.5 0.0
02/04:00am 7.6 5.8 7.2 97 0.2 SW 6 9 3 5 1026.1 1026.1 0.0
02/03:30am 6.6 4.4 6.0 96 0.3 W 7 9 4 5 1026.1 1026.1 0.0
02/03:00am 7.6 6.9 7.0 96 0.3 CALM 0 0 0 0 1026.2 1026.2 0.0
02/02:30am 6.1 5.1 5.4 95 0.3 CALM 0 0 0 0 1026.2 1026.2 0.0
02/02:00am 6.4 5.4 5.7 95 0.3 CALM 0 0 0 0 1026.2 1026.2 0.0
02/01:46am 7.1 6.3 6.4 95 0.3 CALM 0 0 0 0 1026.1 1026.1 0.0
02/01:30am 7.0 6.1 6.1 94 0.4 CALM 0 0 0 0 1026.2 1026.2 0.0
02/01:26am 7.4 6.6 6.7 95 0.3 CALM 0 0 0 0 1026.2 1026.2 0.0
02/01:00am 7.3 5.1 6.4 94 0.4 SW 7 9 4 5 1026.2 1026.2 0.0
02/12:30am 9.6 7.2 8.5 93 0.5 NW 11 13 6 7 1026.3 1026.3 0.0
02/12:00am 11.1 9.1 10.3 95 0.4 NNW 11 13 6 7 1026.4 1026.4 0.0
 
Date/Time
CST
Temp
°C
App
Temp
°C
Dew
Point
Rel
Hum
%
Delta-T
°C
Wind Press
QNH
hPa
Press
MSL
hPa
Rain
since 9 am
mm
Dir
 
Spd
km/h
Gust
km/h
Spd
kts
Gust
kts
01/11:30pm 10.8 9.1 10.0 95 0.4 NNW 9 9 5 5 1026.6 1026.6 0.0
01/11:00pm 9.8 8.4 8.7 93 0.5 NNW 6 7 3 4 1026.7 1026.7 0.0
01/10:30pm 11.2 9.6 10.1 93 0.6 N 9 11 5 6 1026.7 1026.7 0.0
01/10:00pm 11.2 9.5 9.9 92 0.7 NW 9 11 5 6 1026.9 1026.9 0.0
01/09:30pm 11.6 9.5 9.9 89 0.9 NW 11 15 6 8 1026.9 1026.9 0.0
01/09:00pm 11.7 9.4 9.1 84 1.3 NNW 11 15 6 8 1026.8 1026.8 0.0
01/08:30pm 11.6 9.7 9.0 84 1.3 NW 9 11 5 6 1027.0 1027.0 0.0
01/08:00pm 11.9 9.0 8.2 78 1.8 NW 13 17 7 9 1026.8 1026.8 0.0
01/07:30pm 12.2 8.5 7.9 75 2.1 NW 17 22 9 12 1026.8 1026.8 0.0
01/07:00pm 12.4 8.7 8.1 75 2.1 NW 17 20 9 11 1026.6 1026.6 0.0
01/06:30pm 12.5 9.1 7.8 73 2.3 NNW 15 20 8 11 1026.5 1026.5 0.0
01/06:00pm 12.4 9.4 7.7 73 2.3 NW 13 19 7 10 1026.4 1026.4 0.0
01/05:30pm 12.3 8.9 7.6 73 2.3 NW 15 19 8 10 1026.2 1026.2 0.0
01/05:00pm 12.5 8.7 7.6 72 2.4 NW 17 22 9 12 1026.3 1026.3 0.0
01/04:30pm 12.6 9.1 7.1 69 2.6 NW 15 20 8 11 1026.4 1026.4 0.0
01/04:00pm 13.0 8.7 6.8 66 3.0 NW 19 26 10 14 1026.5 1026.5 0.0
01/03:30pm 13.3 8.3 6.6 64 3.2 NW 22 30 12 16 1026.5 1026.5 0.0
01/03:00pm 13.4 8.1 6.7 64 3.2 NW 24 35 13 19 1026.2 1026.2 0.0
01/02:30pm 13.7 9.0 7.9 68 2.9 WNW 22 30 12 16 1026.2 1026.2 0.0
01/02:00pm 13.9 8.7 7.4 65 3.2 NW 24 32 13 17 1026.4 1026.4 0.0
01/01:30pm 13.9 8.8 7.7 66 3.0 NW 24 32 13 17 1026.9 1026.9 0.0
01/01:00pm 13.5 8.0 7.5 67 2.9 NW 26 37 14 20 1027.6 1027.6 0.0
01/12:30pm 13.7 7.4 7.5 66 3.0 WNW 30 39 16 21 1028.2 1028.2 0.0
01/12:00pm 14.0 7.7 7.5 65 3.2 NW 30 41 16 22 1028.2 1028.2 0.0
01/11:30am 14.0 8.9 7.5 65 3.2 NW 24 32 13 17 1028.8 1028.8 0.0
01/11:00am 13.8 8.8 8.0 68 2.9 NW 24 35 13 19 1029.1 1029.1 0.0
01/10:30am 13.7 8.8 8.3 70 2.7 NW 24 33 13 18 1029.3 1029.3 0.0
01/10:00am 13.5 9.2 7.9 69 2.8 NW 20 30 11 16 1029.3 1029.3 0.0
01/09:30am 13.1 8.3 7.5 69 2.7 NNW 22 32 12 17 1028.9 1028.9 0.0
01/09:00am 12.9 8.6 8.0 72 2.4 NNW 20 28 11 15 1028.6 1028.6 0.0
01/08:30am 12.4 7.6 7.5 72 2.4 NW 22 30 12 16 1028.4 1028.4 0.0
01/08:00am 12.2 7.8 7.3 72 2.4 NW 20 28 11 15 1028.1 1028.1 0.0
01/07:30am 12.4 8.0 7.5 72 2.4 NW 20 30 11 16 1028.3 1028.3 0.0
01/07:00am 12.4 8.7 7.9 74 2.2 NNW 17 24 9 13 1028.4 1028.4 0.0
01/06:30am 12.4 8.7 8.1 75 2.1 NW 17 24 9 13 1028.4 1028.4 0.0
01/06:00am 12.4 8.1 7.9 74 2.2 NNW 20 28 11 15 1028.2 1028.2 0.0
01/05:30am 11.8 7.6 8.3 79 1.7 NNW 20 28 11 15 1028.3 1028.3 0.0
01/05:00am 10.7 10.6 9.3 91 0.7 CALM 0 0 0 0 1028.5 1028.5 0.0
01/04:30am 9.4 9.2 8.9 97 0.2 CALM 0 0 0 0 1028.5 1028.5 0.0
01/04:00am 8.2 7.7 7.8 97 0.2 CALM 0 0 0 0 1028.4 1028.4 0.0
01/03:30am 7.5 6.8 7.1 97 0.2 CALM 0 0 0 0 1028.6 1028.6 0.0
01/03:00am 7.3 6.6 6.9 97 0.2 CALM 0 0 0 0 1029.0 1029.0 0.0
01/02:50am 6.5 5.6 6.1 97 0.2 CALM 0 0 0 0 1029.1 1029.1 0.0
01/02:30am 5.7 4.6 5.3 97 0.2 CALM 0 0 0 0 1029.0 1029.0 0.0
01/02:00am 5.1 3.9 4.5 96 0.3 CALM 0 0 0 0 1029.0 1029.0 0.0
01/01:36am 5.4 4.2 4.8 96 0.3 CALM 0 0 0 0 1029.1 1029.1 0.0
01/01:30am 5.5 4.4 4.9 96 0.3 CALM 0 0 0 0 1029.0 1029.0 0.0
01/01:00am 5.9 4.8 5.3 96 0.3 CALM 0 0 0 0 1029.2 1029.2 0.0
01/12:30am 7.7 7.0 7.1 96 0.3 CALM 0 0 0 0 1029.3 1029.3 0.0
01/12:00am 8.2 7.6 7.6 96 0.3 CALM 0 0 0 0 1029.6 1029.6 0.0
 
Date/Time
CST
Temp
°C
App
Temp
°C
Dew
Point
Rel
Hum
%
Delta-T
°C
Wind Press
QNH
hPa
Press
MSL
hPa
Rain
since 9 am
mm
Dir
 
Spd
km/h
Gust
km/h
Spd
kts
Gust
kts
30/11:30pm 8.1 7.5 7.5 96 0.3 CALM 0 0 0 0 1029.5 1029.5 0.0
30/11:00pm 7.9 7.2 7.1 95 0.4 CALM 0 0 0 0 1029.8 1029.8 0.0
30/10:30pm 8.5 8.0 7.7 95 0.4 CALM 0 0 0 0 1030.0 1030.0 0.0
30/10:00pm 8.5 7.9 7.6 94 0.4 CALM 0 0 0 0 1030.1 1030.1 0.0
30/09:30pm 9.6 9.3 8.5 93 0.5 CALM 0 0 0 0 1030.1 1030.1 0.0
30/09:00pm 9.9 9.6 8.5 91 0.7 CALM 0 0 0 0 1030.1 1030.1 0.0
30/08:30pm 10.4 8.9 9.2 92 0.6 WSW 7 9 4 5 1030.3 1030.3 0.0
30/08:00pm 10.7 8.9 9.3 91 0.7 WSW 9 11 5 6 1030.3 1030.3 0.0
30/07:30pm 11.5 8.9 9.2 86 1.1 WSW 13 17 7 9 1030.2 1030.2 0.0
30/07:00pm 11.9 10.7 9.5 85 1.2 W 6 7 3 4 1030.2 1030.2 0.0
30/06:30pm 12.0 10.8 9.4 84 1.3 W 6 7 3 4 1029.9 1029.9 0.0
30/06:00pm 12.0 10.7 9.9 87 1.1 WSW 7 9 4 5 1029.6 1029.6 0.0
30/05:30pm 12.1 10.4 9.8 86 1.2 SW 9 11 5 6 1029.3 1029.3 0.0
30/05:00pm 12.6 10.4 9.2 80 1.7 W 11 13 6 7 1029.1 1029.1 0.0
30/04:30pm 13.3 12.8 9.5 78 1.9 S 2 6 1 3 1028.9 1028.9 0.0
30/04:00pm 13.4 11.6 9.5 77 2.0 SE 9 9 5 5 1028.6 1028.6 0.0
30/03:30pm 14.1 11.4 9.1 72 2.5 SE 13 17 7 9 1028.4 1028.4 0.0
30/03:00pm 15.8 13.3 8.3 61 3.8 WNW 11 19 6 10 1028.2 1028.2 0.0
30/02:30pm 14.9 12.7 7.7 62 3.5 W 9 15 5 8 1028.6 1028.6 0.0
30/02:00pm 14.7 11.6 8.9 68 2.9 WSW 15 19 8 10 1028.8 1028.8 0.0
30/01:30pm 14.2 11.6 7.7 65 3.2 WSW 11 15 6 8 1029.0 1029.0 0.0
30/01:00pm 15.0 12.2 8.5 65 3.3 W 13 19 7 10 1029.4 1029.4 0.0
30/12:30pm 14.5 11.6 8.2 66 3.1 NW 13 17 7 9 1029.6 1029.6 0.0
30/12:00pm 14.0 10.4 8.4 69 2.8 NW 17 20 9 11 1030.0 1030.0 0.0
30/11:30am 13.1 9.8 8.2 72 2.4 WNW 15 20 8 11 1030.4 1030.4 0.0
30/11:00am 13.3 10.6 8.8 74 2.3 WSW 13 17 7 9 1030.7 1030.7 0.0
30/10:30am 12.5 9.7 8.6 77 1.9 W 13 15 7 8 1031.0 1031.0 0.0
30/10:00am 11.7 8.9 8.4 80 1.6 WSW 13 17 7 9 1031.1 1031.1 0.0
30/09:30am 11.3 9.4 9.2 87 1.0 W 9 13 5 7 1031.0 1031.0 0.0
30/09:00am 8.9 8.4 7.7 92 0.6 CALM 0 0 0 0 1030.9 1030.9 0.2
30/08:30am 8.8 8.3 7.7 93 0.5 CALM 0 0 0 0 1030.7 1030.7 0.2
30/08:00am 8.3 7.7 7.4 94 0.4 CALM 0 0 0 0 1030.3 1030.3 0.2
30/07:30am 8.2 7.6 7.3 94 0.4 CALM 0 0 0 0 1030.1 1030.1 0.2
30/07:00am 8.2 7.5 7.1 93 0.5 CALM 0 0 0 0 1029.9 1029.9 0.2
30/06:30am 8.1 7.4 7.0 93 0.5 CALM 0 2 0 1 1029.6 1029.6 0.2
30/06:00am 8.1 6.3 7.2 94 0.4 WSW 6 7 3 4 1029.4 1029.4 0.2
30/05:30am 8.2 6.2 7.3 94 0.4 W 7 9 4 5 1029.1 1029.1 0.2
30/05:00am 8.2 6.2 7.3 94 0.4 W 7 9 4 5 1029.1 1029.1 0.2
30/04:30am 8.2 6.4 7.1 93 0.5 SSW 6 7 3 4 1029.0 1029.0 0.2
30/04:00am 8.7 6.4 7.6 93 0.5 ESE 9 15 5 8 1029.1 1029.1 0.2
30/03:30am 9.0 8.6 8.1 94 0.4 CALM 0 0 0 0 1029.1 1029.1 0.2
30/03:00am 9.0 8.6 8.1 94 0.4 CALM 0 0 0 0 1029.2 1029.2 0.2
30/02:30am 9.2 8.8 8.1 93 0.5 CALM 0 0 0 0 1029.2 1029.2 0.2
30/02:00am 9.1 8.6 8.0 93 0.5 CALM 0 0 0 0 1029.3 1029.3 0.2
30/01:30am 9.4 9.0 8.3 93 0.5 CALM 0 0 0 0 1029.5 1029.5 0.2
30/01:00am 9.6 9.2 8.4 92 0.6 CALM 0 0 0 0 1029.4 1029.4 0.2
30/12:30am 9.9 9.5 8.3 90 0.8 CALM 0 0 0 0 1029.9 1029.9 0.2
30/12:00am 9.9 9.6 8.5 91 0.7 CALM 0 0 0 0 1030.2 1030.2 0.2
 
Date/Time
CST
Temp
°C
App
Temp
°C
Dew
Point
Rel
Hum
%
Delta-T
°C
Wind Press
QNH
hPa
Press
MSL
hPa
Rain
since 9 am
mm
Dir
 
Spd
km/h
Gust
km/h
Spd
kts
Gust
kts
29/11:30pm 9.9 8.5 8.7 92 0.6 SW 6 6 3 3 1030.4 1030.4 0.2
29/11:00pm 9.9 8.5 8.7 92 0.6 S 6 7 3 4 1030.6 1030.6 0.2
29/10:30pm 9.9 8.4 8.5 91 0.7 SSW 6 7 3 4 1030.6 1030.6 0.2
29/10:00pm 9.8 7.7 8.4 91 0.7 SW 9 9 5 5 1030.8 1030.8 0.2
29/09:30pm 10.5 10.2 8.8 89 0.8 CALM 0 0 0 0 1030.9 1030.9 0.2
29/09:00pm 10.5 10.1 8.4 87 1.0 CALM 0 0 0 0 1030.9 1030.9 0.2
29/08:30pm 10.7 10.4 8.5 86 1.1 CALM 0 0 0 0 1030.9 1030.9 0.2
29/08:00pm 10.6 10.0 8.9 89 0.8 SW 2 6 1 3 1031.0 1031.0 0.2
29/07:30pm 10.9 10.6 8.8 87 1.0 CALM 0 0 0 0 1030.9 1030.9 0.2
29/07:00pm 11.2 11.0 8.9 86 1.1 CALM 0 0 0 0 1030.7 1030.7 0.2
29/06:30pm 11.3 10.9 8.3 82 1.5 CALM 0 0 0 0 1030.5 1030.5 0.2
29/06:00pm 11.4 11.0 8.4 82 1.5 CALM 0 0 0 0 1030.4 1030.4 0.2
29/05:30pm 11.8 10.3 8.6 81 1.6 SW 6 7 3 4 1030.2 1030.2 0.2
29/05:00pm 12.2 10.4 7.3 72 2.4 NNW 6 7 3 4 1030.1 1030.1 0.2
29/04:30pm 12.3 10.6 7.6 73 2.3 NW 6 9 3 5 1030.1 1030.1 0.2
29/04:00pm 12.6 10.7 7.5 71 2.5 NW 7 9 4 5 1030.2 1030.2 0.2
29/03:30pm 13.0 11.0 7.2 68 2.8 NNW 7 9 4 5 1030.4 1030.4 0.2
29/03:00pm 13.3 10.9 6.9 65 3.1 NNW 9 11 5 6 1030.5 1030.5 0.2
29/02:30pm 13.6 10.4 6.9 64 3.2 NW 13 17 7 9 1030.6 1030.6 0.2
29/02:00pm 13.8 11.2 7.8 67 3.0 NNW 11 13 6 7 1030.8 1030.8 0.2
29/01:30pm 14.1 11.0 7.2 63 3.3 N 13 17 7 9 1031.0 1031.0 0.0
29/01:00pm 14.1 11.1 7.6 65 3.2 NNW 13 20 7 11 1031.4 1031.4 0.0
29/12:30pm 14.0 10.6 9.0 72 2.5 N 17 22 9 12 1031.8 1031.8 0.0
29/12:00pm 13.6 12.5 8.4 71 2.6 NNE 4 15 2 8 1032.3 1032.3 0.0
29/11:30am 13.3 13.4 10.3 82 1.5 CALM 0 0 0 0 1032.6 1032.6 0.0
29/11:00am 13.0 13.1 10.2 83 1.4 CALM 0 0 0 0 1032.8 1032.8 0.0
29/10:30am 13.0 13.1 10.2 83 1.4 CALM 0 0 0 0 1033.1 1033.1 0.0
29/10:00am 12.2 11.8 11.1 93 0.6 WSW 4 7 2 4 1033.2 1033.2 0.0
29/09:30am 11.7 10.8 11.2 97 0.3 S 7 9 4 5 1033.2 1033.2 0.0
29/09:00am 10.6 10.7 10.3 98 0.2 CALM 0 0 0 0 1033.1 1033.1 2.0

Other Formats:

Comma delimited format used in spreadsheet applications
http://www.bom.gov.au/fwo/IDS60801/IDS60801.95807.axf

JavaScript Object Notation format (JSON) in row-major order
http://www.bom.gov.au/fwo/IDS60801/IDS60801.95807.json